Terminal Aerodrome Forecast
Issued by NWS

Home | Current Version | Previous Version | Text Only | Print | Product List | Glossary On
Versions: 1 2 3 4 5 6 7 8 9 10 11 12 13 14 15 16 17 18 19 20 21
000
FTUS46 KPDT 190647 AAA
TAFRDM
TAF AMD
KRDM 190647Z 1907/2006 15005KT P6SM FEW050 BKN100
     FM190900 16005KT P6SM SCT050 BKN080
     FM192100 24008KT P6SM BKN050=

USA.gov is the U.S. government's official web portal to all federal, state and local government web resources and services.